createdAt,value
2018-12-23T00:02:06.594Z,8.10
2018-12-23T00:04:34.929Z,8.10
2018-12-23T00:07:03.284Z,8.10
2018-12-23T00:09:31.649Z,8.20
2018-12-23T00:12:00.123Z,8.10
2018-12-23T00:14:28.476Z,8.10
2018-12-23T00:16:56.726Z,8.10
2018-12-23T00:19:25.003Z,8.20
2018-12-23T00:21:54.341Z,8.20
2018-12-23T00:24:22.746Z,8.10
2018-12-23T00:26:51.170Z,8.10
2018-12-23T00:29:19.483Z,8.10
2018-12-23T00:31:48.145Z,8.10
2018-12-23T00:34:16.461Z,8.10
2018-12-23T00:36:44.772Z,8.10
2018-12-23T00:39:13.235Z,8.10
2018-12-23T00:41:42.714Z,8.10
2018-12-23T00:44:11.007Z,8.10
2018-12-23T00:46:39.501Z,8.10
2018-12-23T00:49:07.804Z,8.10
2018-12-23T00:51:36.132Z,8.10
2018-12-23T00:54:04.741Z,8.10
2018-12-23T00:56:33.095Z,8.20
2018-12-23T00:59:01.476Z,8.20
2018-12-23T01:01:31.767Z,8.20
2018-12-23T01:04:00.215Z,8.20
2018-12-23T01:06:28.684Z,8.20
2018-12-23T01:08:57.881Z,8.20
2018-12-23T01:11:26.350Z,8.20
2018-12-23T01:13:54.874Z,8.20
2018-12-23T01:16:23.314Z,8.20
2018-12-23T01:18:52.090Z,8.20
2018-12-23T01:21:20.433Z,8.20
2018-12-23T01:23:48.712Z,8.20
2018-12-23T01:26:17.719Z,8.20
2018-12-23T01:28:46.024Z,8.20
2018-12-23T01:31:14.334Z,8.20
2018-12-23T01:33:42.598Z,8.20
2018-12-23T01:36:10.881Z,8.20
2018-12-23T01:38:39.195Z,8.20
2018-12-23T01:41:07.464Z,8.20
2018-12-23T01:43:35.878Z,8.20
2018-12-23T01:46:05.809Z,8.20
2018-12-23T01:48:34.033Z,8.20
2018-12-23T01:51:02.319Z,8.20
2018-12-23T01:53:30.878Z,8.20
2018-12-23T01:56:00.372Z,8.20
2018-12-23T01:58:29.106Z,8.20
2018-12-23T02:00:57.414Z,8.20
2018-12-23T02:03:25.769Z,8.20
2018-12-23T02:05:54.022Z,8.30
2018-12-23T02:08:22.282Z,8.30
2018-12-23T02:10:50.517Z,8.20
2018-12-23T02:13:18.783Z,8.30
2018-12-23T02:15:47.020Z,8.30
2018-12-23T02:18:15.592Z,8.20
2018-12-23T02:20:43.850Z,8.20
2018-12-23T02:23:12.262Z,8.30
2018-12-23T02:25:40.662Z,8.30
2018-12-23T02:28:08.876Z,8.30
2018-12-23T02:30:37.133Z,8.30
2018-12-23T02:33:05.388Z,8.30
2018-12-23T02:35:33.602Z,8.30
2018-12-23T02:38:01.874Z,8.30
2018-12-23T02:40:30.173Z,8.30
2018-12-23T02:42:58.406Z,8.30
2018-12-23T02:45:26.651Z,8.30
2018-12-23T02:47:55.003Z,8.30
2018-12-23T02:50:23.243Z,8.30
2018-12-23T02:52:51.564Z,8.30
2018-12-23T02:55:19.862Z,8.30
2018-12-23T02:57:48.137Z,8.30
2018-12-23T03:00:16.381Z,8.30
2018-12-23T03:02:44.786Z,8.30
2018-12-23T03:05:13.035Z,8.30
2018-12-23T03:07:41.299Z,8.30
2018-12-23T03:10:09.552Z,8.30
2018-12-23T03:12:37.829Z,8.30
2018-12-23T03:15:06.170Z,8.40
2018-12-23T03:17:39.715Z,8.30
2018-12-23T03:20:07.966Z,8.30
2018-12-23T03:22:36.233Z,8.30
2018-12-23T03:25:04.482Z,8.30
2018-12-23T03:27:32.723Z,8.30
2018-12-23T03:30:01.025Z,8.30
2018-12-23T03:32:29.356Z,8.20
2018-12-23T03:34:57.651Z,8.20
2018-12-23T03:37:25.929Z,8.20
2018-12-23T03:39:54.192Z,8.20
2018-12-23T03:42:22.430Z,8.20
2018-12-23T03:44:50.659Z,8.20
2018-12-23T03:47:18.894Z,8.20
2018-12-23T03:49:47.197Z,8.10
2018-12-23T03:52:15.477Z,8.10
2018-12-23T03:54:43.768Z,8.10
2018-12-23T03:57:12.108Z,8.10
2018-12-23T03:59:40.617Z,8.10
2018-12-23T04:02:08.993Z,8.00
2018-12-23T04:04:37.263Z,8.00
2018-12-23T04:07:05.560Z,8.00
2018-12-23T04:09:33.774Z,8.00
2018-12-23T04:12:02.399Z,8.00
2018-12-23T04:14:30.690Z,8.00
2018-12-23T04:16:59.010Z,8.00
2018-12-23T04:19:27.288Z,8.00
2018-12-23T04:21:55.722Z,8.00
2018-12-23T04:24:24.063Z,8.00
2018-12-23T04:26:52.315Z,8.00
2018-12-23T04:29:20.606Z,8.10
2018-12-23T04:31:48.939Z,8.00
2018-12-23T04:34:17.237Z,8.10
2018-12-23T04:36:45.514Z,8.00
2018-12-23T04:39:13.769Z,8.10
2018-12-23T04:41:42.314Z,8.10
2018-12-23T04:44:10.565Z,8.00
2018-12-23T04:46:38.828Z,8.00
2018-12-23T04:49:07.067Z,8.00
2018-12-23T04:51:35.336Z,8.00
2018-12-23T04:54:03.626Z,8.00
2018-12-23T04:56:32.005Z,8.00
2018-12-23T04:59:00.257Z,8.00
2018-12-23T05:01:28.731Z,8.00
2018-12-23T05:03:56.950Z,8.00
2018-12-23T05:06:25.216Z,8.00
2018-12-23T05:08:53.507Z,8.00
2018-12-23T05:11:21.842Z,8.10
2018-12-23T05:13:50.134Z,8.10
2018-12-23T05:16:18.412Z,8.10
2018-12-23T05:18:46.641Z,8.10
2018-12-23T05:21:14.865Z,8.10
2018-12-23T05:23:43.133Z,8.10
2018-12-23T05:26:11.380Z,8.10
2018-12-23T05:28:39.636Z,8.10
2018-12-23T05:31:07.909Z,8.10
2018-12-23T05:33:36.668Z,8.20
2018-12-23T05:36:05.276Z,8.20
2018-12-23T05:38:33.669Z,8.20
2018-12-23T05:41:02.076Z,8.20
2018-12-23T05:43:30.275Z,8.20
2018-12-23T05:45:58.603Z,8.20
2018-12-23T05:48:26.969Z,8.20
2018-12-23T05:50:55.217Z,8.30
2018-12-23T05:53:23.476Z,8.20
2018-12-23T05:55:50.813Z,8.30
2018-12-23T05:58:19.065Z,8.20
2018-12-23T06:00:47.324Z,8.20
2018-12-23T06:03:15.797Z,8.20
2018-12-23T06:05:44.055Z,8.20
2018-12-23T06:08:12.307Z,8.20
2018-12-23T06:10:40.700Z,8.30
2018-12-23T06:13:08.958Z,8.30
2018-12-23T06:15:37.243Z,8.30
2018-12-23T06:18:05.494Z,8.30
2018-12-23T06:20:34.028Z,8.40
2018-12-23T06:23:02.324Z,8.30
2018-12-23T06:25:30.585Z,8.30
2018-12-23T06:27:58.929Z,8.30
2018-12-23T06:30:27.244Z,8.30
2018-12-23T06:32:55.562Z,8.30
2018-12-23T06:35:23.879Z,8.30
2018-12-23T06:37:52.155Z,8.30
2018-12-23T06:40:20.413Z,8.30
2018-12-23T06:42:48.673Z,8.30
2018-12-23T06:45:16.935Z,8.20
2018-12-23T06:47:45.182Z,8.20
2018-12-23T06:50:13.394Z,8.20
2018-12-23T06:52:41.630Z,8.30
2018-12-23T06:55:09.863Z,8.30
2018-12-23T06:57:38.147Z,8.30
2018-12-23T07:00:07.568Z,8.30
2018-12-23T07:02:35.941Z,8.30
2018-12-23T07:05:04.493Z,8.30
2018-12-23T07:07:32.784Z,8.30
2018-12-23T07:10:01.081Z,8.30
2018-12-23T07:12:29.384Z,8.30
2018-12-23T07:14:59.589Z,8.30
2018-12-23T07:17:27.981Z,8.20
2018-12-23T07:19:56.250Z,8.20
2018-12-23T07:22:24.526Z,8.30
2018-12-23T07:24:52.806Z,8.30
2018-12-23T07:27:21.099Z,8.30
2018-12-23T07:29:49.341Z,8.30
2018-12-23T07:32:17.708Z,8.30
2018-12-23T07:34:46.011Z,8.20
2018-12-23T07:37:14.289Z,8.30
2018-12-23T07:39:42.550Z,8.30
2018-12-23T07:42:10.782Z,8.30
2018-12-23T07:44:39.034Z,8.30
2018-12-23T07:47:07.287Z,8.30
2018-12-23T07:49:35.510Z,8.30
2018-12-23T07:52:03.785Z,8.30
2018-12-23T07:54:32.064Z,8.30
2018-12-23T07:57:00.398Z,8.30
2018-12-23T07:59:28.685Z,8.30
2018-12-23T08:01:57.134Z,8.30
2018-12-23T08:04:25.505Z,8.30
2018-12-23T08:06:53.758Z,8.30
2018-12-23T08:09:22.050Z,8.30
2018-12-23T08:11:50.404Z,8.30
2018-12-23T08:14:18.652Z,8.30
2018-12-23T08:16:46.996Z,8.40
2018-12-23T08:19:15.256Z,8.40
2018-12-23T08:21:43.930Z,8.40
2018-12-23T08:24:12.205Z,8.40
2018-12-23T08:26:40.501Z,8.40
2018-12-23T08:29:08.745Z,8.40
2018-12-23T08:31:36.982Z,8.40
2018-12-23T08:34:05.263Z,8.40
2018-12-23T08:36:33.485Z,8.40
2018-12-23T08:39:01.811Z,8.40
2018-12-23T08:41:30.099Z,8.50
2018-12-23T08:43:58.343Z,8.50
2018-12-23T08:46:26.653Z,8.50
2018-12-23T08:48:54.933Z,8.50
2018-12-23T08:51:23.249Z,8.60
2018-12-23T08:53:51.519Z,8.60
2018-12-23T08:56:19.777Z,8.60
2018-12-23T08:58:48.154Z,8.60
2018-12-23T09:01:16.411Z,8.60
2018-12-23T09:03:44.752Z,8.60
2018-12-23T09:06:13.086Z,8.70
2018-12-23T09:08:41.345Z,8.70
2018-12-23T09:11:09.620Z,8.70
2018-12-23T09:13:37.870Z,8.70
2018-12-23T09:16:06.129Z,8.60
2018-12-23T09:18:34.621Z,8.70
2018-12-23T09:21:02.884Z,8.80
2018-12-23T09:23:31.259Z,8.70
2018-12-23T09:25:59.504Z,8.60
2018-12-23T09:28:27.794Z,8.60
2018-12-23T09:30:56.098Z,8.70
2018-12-23T09:33:24.369Z,8.60
2018-12-23T09:35:52.646Z,8.60
2018-12-23T09:38:20.915Z,8.70
2018-12-23T09:40:49.197Z,8.70
2018-12-23T09:43:17.499Z,8.70
2018-12-23T09:45:45.749Z,8.70
2018-12-23T09:48:14.005Z,8.70
2018-12-23T09:50:42.310Z,8.80
2018-12-23T09:53:10.532Z,8.80
2018-12-23T09:55:38.818Z,8.80
2018-12-23T09:58:07.072Z,8.80
2018-12-23T10:00:35.336Z,8.80
2018-12-23T10:03:03.696Z,8.80
2018-12-23T10:05:32.517Z,8.80
2018-12-23T10:08:00.869Z,8.90
2018-12-23T10:10:29.157Z,8.90
2018-12-23T10:12:57.475Z,8.90
2018-12-23T10:15:25.741Z,8.90
2018-12-23T10:17:54.002Z,8.90
2018-12-23T10:20:22.274Z,8.90
2018-12-23T10:22:50.516Z,8.90
2018-12-23T10:25:18.757Z,8.90
2018-12-23T10:27:47.022Z,9.00
2018-12-23T10:30:15.287Z,9.00
2018-12-23T10:32:43.542Z,9.00
2018-12-23T10:35:11.819Z,9.00
2018-12-23T10:37:40.095Z,9.00
2018-12-23T10:40:08.570Z,9.10
2018-12-23T10:42:36.930Z,9.10
2018-12-23T10:45:06.149Z,9.10
2018-12-23T10:47:34.491Z,9.10
2018-12-23T10:50:02.751Z,9.10
2018-12-23T10:52:31.182Z,9.20
2018-12-23T10:54:59.455Z,9.10
2018-12-23T10:57:27.729Z,9.20
2018-12-23T10:59:55.994Z,9.20
2018-12-23T11:02:24.263Z,9.10
2018-12-23T11:04:52.553Z,9.10
2018-12-23T11:07:20.829Z,9.00
2018-12-23T11:09:49.072Z,9.00
2018-12-23T11:12:17.328Z,8.90
2018-12-23T11:14:45.793Z,9.00
2018-12-23T11:17:14.058Z,9.00
2018-12-23T11:19:48.797Z,9.00
2018-12-23T11:22:17.086Z,9.10
2018-12-23T11:24:45.352Z,9.10
2018-12-23T11:27:13.693Z,9.10
2018-12-23T11:29:42.018Z,9.00
2018-12-23T11:32:10.351Z,9.00
2018-12-23T11:34:38.711Z,9.00
2018-12-23T11:37:07.150Z,9.00
2018-12-23T11:39:35.494Z,9.10
2018-12-23T11:42:03.789Z,9.10
2018-12-23T11:44:32.064Z,9.00
2018-12-23T11:47:00.360Z,9.10
2018-12-23T11:49:28.644Z,9.00
2018-12-23T11:51:56.939Z,9.00
2018-12-23T11:54:25.239Z,9.00
2018-12-23T11:56:53.521Z,9.00
2018-12-23T11:59:21.824Z,9.00
2018-12-23T12:01:50.083Z,9.00
2018-12-23T12:04:18.368Z,9.00
2018-12-23T12:06:46.663Z,8.90
2018-12-23T12:09:15.017Z,8.90
2018-12-23T12:11:43.324Z,8.90
2018-12-23T12:14:11.554Z,8.90
2018-12-23T12:16:39.805Z,8.90
2018-12-23T12:19:08.103Z,8.80
2018-12-23T12:21:36.550Z,8.70
2018-12-23T12:24:05.078Z,8.60
2018-12-23T12:26:33.644Z,8.60
2018-12-23T12:29:01.892Z,8.50
2018-12-23T12:31:30.161Z,8.50
2018-12-23T12:33:58.451Z,8.50
2018-12-23T12:36:26.710Z,8.50
2018-12-23T12:38:54.974Z,8.40
2018-12-23T12:41:23.321Z,8.40
2018-12-23T12:43:51.622Z,8.40
2018-12-23T12:46:19.922Z,8.50
2018-12-23T12:48:48.186Z,8.50
2018-12-23T12:51:16.462Z,8.40
2018-12-23T12:53:44.820Z,8.50
2018-12-23T12:56:13.154Z,8.50
2018-12-23T12:58:41.387Z,8.40
2018-12-23T13:01:09.787Z,8.40
2018-12-23T13:03:38.630Z,8.40
2018-12-23T13:06:06.932Z,8.40
2018-12-23T13:08:35.285Z,8.40
2018-12-23T13:11:03.631Z,8.40
2018-12-23T13:13:31.906Z,8.40
2018-12-23T13:16:00.164Z,8.40
2018-12-23T13:18:28.440Z,8.40
2018-12-23T13:20:56.702Z,8.40
2018-12-23T13:23:24.986Z,8.40
2018-12-23T13:25:53.262Z,8.40
2018-12-23T13:28:21.542Z,8.40
2018-12-23T13:30:49.884Z,8.50
2018-12-23T13:33:18.182Z,8.50
2018-12-23T13:35:46.535Z,8.50
2018-12-23T13:38:14.835Z,8.50
2018-12-23T13:40:52.944Z,8.60
2018-12-23T13:44:05.854Z,8.60
2018-12-23T13:46:45.180Z,8.60
2018-12-23T13:50:25.274Z,8.60
2018-12-23T13:53:05.623Z,8.50
2018-12-23T13:55:43.441Z,8.50
2018-12-23T14:00:20.474Z,8.50
2018-12-23T14:05:08.145Z,8.50
2018-12-23T14:07:57.441Z,8.50
2018-12-23T14:11:33.888Z,8.60
2018-12-23T14:14:02.208Z,8.60
2018-12-23T14:16:30.534Z,8.60
2018-12-23T14:18:59.436Z,8.70
2018-12-23T14:21:28.121Z,8.60
2018-12-23T14:23:56.787Z,8.60
2018-12-23T14:26:25.859Z,8.60
2018-12-23T14:29:00.618Z,8.60
2018-12-23T14:31:28.856Z,8.60
2018-12-23T14:33:57.090Z,8.60
2018-12-23T14:36:25.557Z,8.50
2018-12-23T14:38:55.598Z,8.50
2018-12-23T14:41:24.220Z,8.50
2018-12-23T14:43:52.526Z,8.50
2018-12-23T14:46:20.872Z,8.40
2018-12-23T14:48:49.303Z,8.40
2018-12-23T14:51:18.791Z,8.40
2018-12-23T14:53:47.167Z,8.50
2018-12-23T14:56:15.518Z,8.40
2018-12-23T14:58:45.219Z,8.40
2018-12-23T15:01:13.673Z,8.40
2018-12-23T15:03:42.144Z,8.30
2018-12-23T15:06:10.563Z,8.40
2018-12-23T15:08:38.870Z,8.30
2018-12-23T15:11:07.188Z,8.30
2018-12-23T15:13:35.531Z,8.30
2018-12-23T15:16:04.041Z,8.30
2018-12-23T15:18:36.858Z,8.20
2018-12-23T15:21:05.129Z,8.10
2018-12-23T15:23:33.621Z,8.00
2018-12-23T15:26:01.959Z,8.00
2018-12-23T15:28:30.254Z,8.00
2018-12-23T15:30:58.569Z,7.90
2018-12-23T15:33:26.895Z,7.90
2018-12-23T15:35:55.272Z,7.90
2018-12-23T15:38:23.614Z,7.90
2018-12-23T15:40:51.954Z,7.90
2018-12-23T15:43:20.263Z,7.80
2018-12-23T15:45:48.572Z,7.80
2018-12-23T15:48:16.813Z,7.70
2018-12-23T15:50:45.133Z,7.70
2018-12-23T15:53:13.456Z,7.70
2018-12-23T15:55:41.853Z,7.70
2018-12-23T15:58:10.205Z,7.70
2018-12-23T16:00:38.479Z,7.70
2018-12-23T16:03:06.932Z,7.70
2018-12-23T16:05:35.213Z,7.70
2018-12-23T16:08:04.725Z,7.70
2018-12-23T16:10:33.015Z,7.60
2018-12-23T16:13:01.413Z,7.60
2018-12-23T16:15:29.796Z,7.60
2018-12-23T16:17:58.071Z,7.60
2018-12-23T16:20:26.435Z,7.60
2018-12-23T16:22:54.784Z,7.60
2018-12-23T16:25:23.097Z,7.60
2018-12-23T16:27:51.498Z,7.60
2018-12-23T16:30:19.822Z,7.60
2018-12-23T16:32:48.124Z,7.60
2018-12-23T16:35:16.597Z,7.60
2018-12-23T16:37:45.036Z,7.70
2018-12-23T16:40:13.965Z,7.60
2018-12-23T16:42:42.248Z,7.60
2018-12-23T16:45:10.663Z,7.60
2018-12-23T16:47:38.981Z,7.60
2018-12-23T16:50:08.511Z,7.60
2018-12-23T16:52:36.836Z,7.60
2018-12-23T16:55:06.276Z,7.60
2018-12-23T16:57:34.583Z,7.60
2018-12-23T17:00:02.949Z,7.50
2018-12-23T17:02:32.002Z,7.60
2018-12-23T17:05:00.300Z,7.60
2018-12-23T17:07:28.684Z,7.60
2018-12-23T17:09:56.970Z,7.60
2018-12-23T17:12:25.397Z,7.50
2018-12-23T17:14:53.709Z,7.50
2018-12-23T17:17:22.030Z,7.50
2018-12-23T17:19:50.302Z,7.50
2018-12-23T17:22:18.562Z,7.50
2018-12-23T17:24:46.797Z,7.50
2018-12-23T17:27:15.141Z,7.50
2018-12-23T17:29:43.378Z,7.40
2018-12-23T17:32:11.689Z,7.50
2018-12-23T17:34:40.065Z,7.40
2018-12-23T17:37:08.481Z,7.40
2018-12-23T17:39:36.962Z,7.40
2018-12-23T17:42:05.250Z,7.40
2018-12-23T17:44:33.589Z,7.40
2018-12-23T17:47:01.931Z,7.40
2018-12-23T17:49:30.238Z,7.40
2018-12-23T17:51:58.658Z,7.50
2018-12-23T17:54:26.939Z,7.50
2018-12-23T17:56:55.248Z,7.30
2018-12-23T17:59:23.623Z,7.40
2018-12-23T18:01:51.900Z,7.40
2018-12-23T18:04:20.157Z,7.40
2018-12-23T18:06:48.781Z,7.40
2018-12-23T18:09:17.078Z,7.30
2018-12-23T18:11:45.370Z,7.30
2018-12-23T18:14:13.747Z,7.30
2018-12-23T18:16:42.170Z,7.40
2018-12-23T18:19:10.709Z,7.30
2018-12-23T18:21:39.222Z,7.30
2018-12-23T18:24:07.544Z,7.30
2018-12-23T18:26:35.953Z,7.30
2018-12-23T18:29:04.249Z,7.30
2018-12-23T18:31:32.494Z,7.30
2018-12-23T18:34:00.749Z,7.30
2018-12-23T18:36:29.170Z,7.20
2018-12-23T18:38:57.459Z,7.30
2018-12-23T18:41:25.791Z,7.30
2018-12-23T18:43:54.197Z,7.30
2018-12-23T18:46:22.630Z,7.30
2018-12-23T18:48:51.022Z,7.30
2018-12-23T18:51:19.330Z,7.30
2018-12-23T18:53:47.689Z,7.30
2018-12-23T18:56:17.009Z,7.30
2018-12-23T18:58:45.402Z,7.30
2018-12-23T19:01:14.615Z,7.30
2018-12-23T19:03:42.960Z,7.30
2018-12-23T19:06:11.751Z,7.30
2018-12-23T19:08:59.356Z,7.30
2018-12-23T19:12:04.551Z,7.30
2018-12-23T19:14:47.764Z,7.30
2018-12-23T19:17:26.298Z,7.30
2018-12-23T19:21:11.109Z,7.30
2018-12-23T19:23:49.323Z,7.40
2018-12-23T19:26:30.435Z,7.30
2018-12-23T19:29:12.914Z,7.30
2018-12-23T19:33:54.654Z,7.30
2018-12-23T19:36:32.930Z,7.30
2018-12-23T19:39:20.297Z,7.40
2018-12-23T19:42:01.838Z,7.40
2018-12-23T19:44:45.890Z,7.40
2018-12-23T19:47:26.212Z,7.40
2018-12-23T19:50:21.206Z,7.40
2018-12-23T19:55:06.415Z,7.50
2018-12-23T19:59:50.342Z,7.40
2018-12-23T20:02:59.461Z,7.30
2018-12-23T20:05:42.831Z,7.40
2018-12-23T20:08:26.238Z,7.30
2018-12-23T20:11:09.343Z,7.20
2018-12-23T20:15:53.768Z,7.20
2018-12-23T20:31:30.670Z,7.20
2018-12-23T20:36:20.743Z,7.20
2018-12-23T20:39:00.174Z,7.30
2018-12-23T20:41:41.372Z,7.20
2018-12-23T20:44:51.543Z,7.20
2018-12-23T20:58:49.290Z,7.20
2018-12-23T21:01:30.584Z,7.20
2018-12-23T21:04:11.283Z,7.20
2018-12-23T21:06:52.276Z,7.10
2018-12-23T21:09:35.490Z,7.20
2018-12-23T21:12:16.071Z,7.20
2018-12-23T21:14:59.125Z,7.20
2018-12-23T21:20:26.354Z,7.10
2018-12-23T21:23:07.103Z,7.10
2018-12-23T21:25:47.997Z,7.00
2018-12-23T21:28:28.929Z,7.00
2018-12-23T21:31:09.947Z,6.90
2018-12-23T21:33:50.646Z,6.90
2018-12-23T21:36:31.388Z,6.90
2018-12-23T21:39:12.202Z,6.90
2018-12-23T21:41:57.590Z,6.80
2018-12-23T21:44:39.064Z,6.80
2018-12-23T21:47:19.893Z,6.70
2018-12-23T21:50:00.654Z,6.70
2018-12-23T21:52:41.623Z,6.70
2018-12-23T21:55:22.875Z,6.80
2018-12-23T21:58:03.733Z,6.70
2018-12-23T22:00:44.744Z,6.70
2018-12-23T22:03:25.810Z,6.60
2018-12-23T22:06:06.872Z,6.70
2018-12-23T22:08:48.199Z,6.70
2018-12-23T22:11:33.018Z,6.60
2018-12-23T22:14:11.396Z,6.60
2018-12-23T22:16:52.444Z,6.60
2018-12-23T22:19:33.101Z,6.60
2018-12-23T22:24:56.913Z,6.40
2018-12-23T22:27:37.602Z,6.50
2018-12-23T22:30:18.368Z,6.50
2018-12-23T22:32:59.431Z,6.40
2018-12-23T22:35:40.017Z,6.40
2018-12-23T22:38:20.991Z,6.40
2018-12-23T22:41:01.807Z,6.40
2018-12-23T22:43:42.558Z,6.40
2018-12-23T22:46:23.519Z,6.40
2018-12-23T22:49:04.409Z,6.50
2018-12-23T22:51:44.885Z,6.40
2018-12-23T22:54:25.590Z,6.40
2018-12-23T22:57:06.372Z,6.40
2018-12-23T22:59:50.377Z,6.40
2018-12-23T23:02:31.679Z,6.40
2018-12-23T23:05:00.403Z,6.40
2018-12-23T23:07:29.168Z,6.40
2018-12-23T23:10:17.351Z,6.40
2018-12-23T23:13:05.398Z,6.50
2018-12-23T23:15:53.535Z,6.50
2018-12-23T23:18:41.761Z,6.40
2018-12-23T23:21:29.902Z,6.40
2018-12-23T23:24:18.062Z,6.40
2018-12-23T23:27:06.214Z,6.40
2018-12-23T23:29:54.329Z,6.40
2018-12-23T23:33:01.497Z,6.40
2018-12-23T23:35:49.984Z,6.40
2018-12-23T23:38:31.185Z,6.40
2018-12-23T23:41:11.935Z,6.40
2018-12-23T23:43:52.696Z,6.40
2018-12-23T23:46:38.098Z,6.40
2018-12-23T23:49:18.783Z,6.30
2018-12-23T23:52:03.381Z,6.30
2018-12-23T23:54:44.482Z,6.30
2018-12-23T23:57:25.297Z,6.30
